AU-0032 weather

Tumbarumba Airport
Tumbarumba, New South Wales, Australia

Public forecast

Using degrees Celsius for public forecast. Weather courtesy of forecast.io.

Closest aviation weather report (METAR) to Tumbarumba Airport

Closest report is Wagga Wagga City Airport, 41.3 nm (76.6 km) NNW. Retrieved 2020/05/30 04:00 UTC (46 minutes ago):

YSWG 300400Z AUTO 07010KT 9999 // BKN038 BKN045 17/10 Q1021

Closest aviation forecast (TAF) to Tumbarumba Airport

Forecast is more than 12 hours old.

Closest forecast is Wagga Wagga City Airport, 41.3 nm (76.6 km) NNW. Retrieved 2018/05/25 18:03 UTC (2 years ago):

TAF YSWG 251649Z 2518/2608 07008KT CAVOK